sensor_id;sensor_type;location;lat;lon;timestamp;P1;durP1;ratioP1;P2;durP2;ratioP2
11481;SDS011;5797;51.662;6.748;2023-07-08T00:00:29;3.30;;;2.40;;
11481;SDS011;5797;51.662;6.748;2023-07-08T00:02:57;3.47;;;3.00;;
11481;SDS011;5797;51.662;6.748;2023-07-08T00:05:26;3.07;;;2.47;;
11481;SDS011;5797;51.662;6.748;2023-07-08T00:07:54;4.10;;;2.80;;
11481;SDS011;5797;51.662;6.748;2023-07-08T00:10:23;3.10;;;2.73;;
11481;SDS011;5797;51.662;6.748;2023-07-08T00:12:54;3.10;;;2.47;;
11481;SDS011;5797;51.662;6.748;2023-07-08T00:15:24;4.33;;;2.60;;
11481;SDS011;5797;51.662;6.748;2023-07-08T00:17:55;4.27;;;2.60;;
11481;SDS011;5797;51.662;6.748;2023-07-08T00:20:26;3.03;;;2.40;;
11481;SDS011;5797;51.662;6.748;2023-07-08T00:22:58;3.53;;;2.50;;
11481;SDS011;5797;51.662;6.748;2023-07-08T00:25:28;4.37;;;2.73;;
11481;SDS011;5797;51.662;6.748;2023-07-08T00:27:56;4.47;;;2.93;;
11481;SDS011;5797;51.662;6.748;2023-07-08T00:30:26;3.57;;;2.73;;
11481;SDS011;5797;51.662;6.748;2023-07-08T00:32:57;3.70;;;2.50;;
11481;SDS011;5797;51.662;6.748;2023-07-08T00:35:28;5.53;;;2.80;;
11481;SDS011;5797;51.662;6.748;2023-07-08T00:37:59;6.07;;;2.67;;
11481;SDS011;5797;51.662;6.748;2023-07-08T00:40:29;6.30;;;2.90;;
11481;SDS011;5797;51.662;6.748;2023-07-08T00:43:01;2.83;;;2.50;;
11481;SDS011;5797;51.662;6.748;2023-07-08T00:45:37;3.23;;;2.70;;
11481;SDS011;5797;51.662;6.748;2023-07-08T00:48:22;3.37;;;2.43;;
11481;SDS011;5797;51.662;6.748;2023-07-08T00:50:52;3.13;;;2.70;;
11481;SDS011;5797;51.662;6.748;2023-07-08T00:53:24;5.87;;;2.67;;
11481;SDS011;5797;51.662;6.748;2023-07-08T00:55:55;5.40;;;2.40;;
11481;SDS011;5797;51.662;6.748;2023-07-08T00:58:35;5.17;;;2.90;;
11481;SDS011;5797;51.662;6.748;2023-07-08T01:01:07;3.17;;;2.43;;
11481;SDS011;5797;51.662;6.748;2023-07-08T01:03:39;3.27;;;2.67;;
11481;SDS011;5797;51.662;6.748;2023-07-08T01:06:12;3.63;;;2.77;;
11481;SDS011;5797;51.662;6.748;2023-07-08T01:08:41;5.27;;;2.67;;
11481;SDS011;5797;51.662;6.748;2023-07-08T01:11:10;3.10;;;2.43;;
11481;SDS011;5797;51.662;6.748;2023-07-08T01:13:39;3.50;;;2.57;;
11481;SDS011;5797;51.662;6.748;2023-07-08T01:16:09;4.23;;;2.73;;
11481;SDS011;5797;51.662;6.748;2023-07-08T01:18:40;3.50;;;2.80;;
11481;SDS011;5797;51.662;6.748;2023-07-08T01:23:59;3.37;;;3.00;;
11481;SDS011;5797;51.662;6.748;2023-07-08T01:26:29;3.27;;;2.87;;
11481;SDS011;5797;51.662;6.748;2023-07-08T01:28:58;4.07;;;2.80;;
11481;SDS011;5797;51.662;6.748;2023-07-08T01:31:27;4.33;;;3.20;;
11481;SDS011;5797;51.662;6.748;2023-07-08T01:33:56;3.90;;;2.87;;
11481;SDS011;5797;51.662;6.748;2023-07-08T01:36:24;3.37;;;2.63;;
11481;SDS011;5797;51.662;6.748;2023-07-08T01:38:53;3.97;;;2.87;;
11481;SDS011;5797;51.662;6.748;2023-07-08T01:41:23;4.13;;;2.90;;
11481;SDS011;5797;51.662;6.748;2023-07-08T01:43:51;3.33;;;2.60;;
11481;SDS011;5797;51.662;6.748;2023-07-08T01:46:21;3.70;;;2.70;;
11481;SDS011;5797;51.662;6.748;2023-07-08T01:48:52;3.57;;;2.70;;
11481;SDS011;5797;51.662;6.748;2023-07-08T01:51:23;3.27;;;2.80;;
11481;SDS011;5797;51.662;6.748;2023-07-08T01:53:52;3.97;;;3.20;;
11481;SDS011;5797;51.662;6.748;2023-07-08T01:56:20;6.37;;;3.00;;
11481;SDS011;5797;51.662;6.748;2023-07-08T01:58:51;3.43;;;3.10;;
11481;SDS011;5797;51.662;6.748;2023-07-08T02:01:19;4.13;;;2.70;;
11481;SDS011;5797;51.662;6.748;2023-07-08T02:03:48;3.67;;;2.90;;
11481;SDS011;5797;51.662;6.748;2023-07-08T02:06:19;5.60;;;2.70;;
11481;SDS011;5797;51.662;6.748;2023-07-08T02:08:48;3.17;;;2.83;;
11481;SDS011;5797;51.662;6.748;2023-07-08T02:11:17;3.10;;;2.70;;
11481;SDS011;5797;51.662;6.748;2023-07-08T02:13:47;6.10;;;3.17;;
11481;SDS011;5797;51.662;6.748;2023-07-08T02:16:16;6.53;;;3.27;;
11481;SDS011;5797;51.662;6.748;2023-07-08T02:18:44;4.60;;;3.10;;
11481;SDS011;5797;51.662;6.748;2023-07-08T02:21:13;3.37;;;2.93;;
11481;SDS011;5797;51.662;6.748;2023-07-08T02:23:49;6.03;;;3.00;;
11481;SDS011;5797;51.662;6.748;2023-07-08T02:26:18;4.57;;;2.73;;
11481;SDS011;5797;51.662;6.748;2023-07-08T02:28:48;6.60;;;3.20;;
11481;SDS011;5797;51.662;6.748;2023-07-08T02:31:16;3.77;;;2.70;;
11481;SDS011;5797;51.662;6.748;2023-07-08T02:33:45;3.03;;;2.60;;
11481;SDS011;5797;51.662;6.748;2023-07-08T02:36:13;3.03;;;2.63;;
11481;SDS011;5797;51.662;6.748;2023-07-08T02:38:42;3.30;;;2.77;;
11481;SDS011;5797;51.662;6.748;2023-07-08T02:41:10;3.33;;;2.60;;
11481;SDS011;5797;51.662;6.748;2023-07-08T02:43:39;7.33;;;3.40;;
11481;SDS011;5797;51.662;6.748;2023-07-08T02:46:08;4.20;;;3.20;;
11481;SDS011;5797;51.662;6.748;2023-07-08T02:48:37;4.03;;;2.77;;
11481;SDS011;5797;51.662;6.748;2023-07-08T02:51:05;4.23;;;3.00;;
11481;SDS011;5797;51.662;6.748;2023-07-08T02:53:35;3.57;;;2.80;;
11481;SDS011;5797;51.662;6.748;2023-07-08T02:56:04;4.57;;;3.03;;
11481;SDS011;5797;51.662;6.748;2023-07-08T02:58:32;6.20;;;3.03;;
11481;SDS011;5797;51.662;6.748;2023-07-08T03:01:01;3.67;;;2.90;;
11481;SDS011;5797;51.662;6.748;2023-07-08T03:03:31;3.40;;;2.80;;
11481;SDS011;5797;51.662;6.748;2023-07-08T03:06:02;4.60;;;2.80;;
11481;SDS011;5797;51.662;6.748;2023-07-08T03:08:32;4.37;;;3.00;;
11481;SDS011;5797;51.662;6.748;2023-07-08T03:11:01;3.83;;;2.83;;
11481;SDS011;5797;51.662;6.748;2023-07-08T03:13:30;4.73;;;2.77;;
11481;SDS011;5797;51.662;6.748;2023-07-08T03:16:00;3.17;;;2.70;;
11481;SDS011;5797;51.662;6.748;2023-07-08T03:18:37;3.33;;;2.57;;
11481;SDS011;5797;51.662;6.748;2023-07-08T03:21:13;3.43;;;2.63;;
11481;SDS011;5797;51.662;6.748;2023-07-08T03:23:43;3.93;;;3.00;;
11481;SDS011;5797;51.662;6.748;2023-07-08T03:26:12;3.90;;;2.73;;
11481;SDS011;5797;51.662;6.748;2023-07-08T03:28:43;4.70;;;3.47;;
11481;SDS011;5797;51.662;6.748;2023-07-08T03:31:12;3.60;;;2.70;;
11481;SDS011;5797;51.662;6.748;2023-07-08T03:33:42;3.57;;;2.97;;
11481;SDS011;5797;51.662;6.748;2023-07-08T03:36:12;4.07;;;3.30;;
11481;SDS011;5797;51.662;6.748;2023-07-08T03:38:49;4.07;;;2.90;;
11481;SDS011;5797;51.662;6.748;2023-07-08T03:41:18;5.73;;;3.03;;
11481;SDS011;5797;51.662;6.748;2023-07-08T03:43:48;7.73;;;3.30;;
11481;SDS011;5797;51.662;6.748;2023-07-08T03:46:19;5.10;;;3.20;;
11481;SDS011;5797;51.662;6.748;2023-07-08T03:48:52;3.83;;;2.63;;
11481;SDS011;5797;51.662;6.748;2023-07-08T03:51:21;4.80;;;2.67;;
11481;SDS011;5797;51.662;6.748;2023-07-08T03:53:51;3.80;;;2.73;;
11481;SDS011;5797;51.662;6.748;2023-07-08T03:56:21;3.87;;;3.07;;
11481;SDS011;5797;51.662;6.748;2023-07-08T03:58:49;3.50;;;2.60;;
11481;SDS011;5797;51.662;6.748;2023-07-08T04:01:18;7.07;;;2.90;;
11481;SDS011;5797;51.662;6.748;2023-07-08T04:03:49;4.53;;;3.10;;
11481;SDS011;5797;51.662;6.748;2023-07-08T04:06:20;10.73;;;5.80;;
11481;SDS011;5797;51.662;6.748;2023-07-08T04:08:49;10.63;;;3.43;;
11481;SDS011;5797;51.662;6.748;2023-07-08T04:11:18;9.23;;;2.93;;
11481;SDS011;5797;51.662;6.748;2023-07-08T04:13:49;12.33;;;3.83;;
11481;SDS011;5797;51.662;6.748;2023-07-08T04:16:18;22.90;;;4.20;;
11481;SDS011;5797;51.662;6.748;2023-07-08T04:18:48;4.33;;;2.70;;
11481;SDS011;5797;51.662;6.748;2023-07-08T04:21:21;5.27;;;2.97;;
11481;SDS011;5797;51.662;6.748;2023-07-08T04:23:52;3.67;;;2.80;;
11481;SDS011;5797;51.662;6.748;2023-07-08T04:26:20;3.63;;;3.03;;
11481;SDS011;5797;51.662;6.748;2023-07-08T04:28:49;4.70;;;2.97;;
11481;SDS011;5797;51.662;6.748;2023-07-08T04:31:18;3.83;;;2.83;;
11481;SDS011;5797;51.662;6.748;2023-07-08T04:33:47;4.03;;;3.10;;
11481;SDS011;5797;51.662;6.748;2023-07-08T04:36:15;3.77;;;3.00;;
11481;SDS011;5797;51.662;6.748;2023-07-08T04:38:45;6.90;;;3.00;;
11481;SDS011;5797;51.662;6.748;2023-07-08T04:41:14;3.90;;;3.10;;
11481;SDS011;5797;51.662;6.748;2023-07-08T04:43:42;3.43;;;2.83;;
11481;SDS011;5797;51.662;6.748;2023-07-08T04:46:14;4.80;;;2.87;;
11481;SDS011;5797;51.662;6.748;2023-07-08T04:48:46;4.93;;;2.90;;
11481;SDS011;5797;51.662;6.748;2023-07-08T04:51:15;4.03;;;3.20;;
11481;SDS011;5797;51.662;6.748;2023-07-08T04:53:45;5.77;;;3.03;;
11481;SDS011;5797;51.662;6.748;2023-07-08T04:56:13;3.53;;;2.80;;
11481;SDS011;5797;51.662;6.748;2023-07-08T04:58:42;3.90;;;2.67;;
11481;SDS011;5797;51.662;6.748;2023-07-08T05:01:10;3.23;;;2.70;;
11481;SDS011;5797;51.662;6.748;2023-07-08T05:03:39;7.30;;;3.40;;
11481;SDS011;5797;51.662;6.748;2023-07-08T05:06:07;5.10;;;3.07;;
11481;SDS011;5797;51.662;6.748;2023-07-08T05:08:36;4.73;;;3.50;;
11481;SDS011;5797;51.662;6.748;2023-07-08T05:11:06;3.73;;;2.90;;
11481;SDS011;5797;51.662;6.748;2023-07-08T05:13:35;3.47;;;3.00;;
11481;SDS011;5797;51.662;6.748;2023-07-08T05:16:03;4.13;;;3.30;;
11481;SDS011;5797;51.662;6.748;2023-07-08T05:18:32;5.97;;;3.60;;
11481;SDS011;5797;51.662;6.748;2023-07-08T05:21:01;7.03;;;3.60;;
11481;SDS011;5797;51.662;6.748;2023-07-08T05:23:30;6.97;;;3.50;;
11481;SDS011;5797;51.662;6.748;2023-07-08T05:25:59;4.90;;;2.83;;
11481;SDS011;5797;51.662;6.748;2023-07-08T05:28:29;5.13;;;3.33;;
11481;SDS011;5797;51.662;6.748;2023-07-08T05:30:58;4.20;;;3.07;;
11481;SDS011;5797;51.662;6.748;2023-07-08T05:33:28;5.83;;;3.07;;
11481;SDS011;5797;51.662;6.748;2023-07-08T05:35:57;3.50;;;2.90;;
11481;SDS011;5797;51.662;6.748;2023-07-08T05:38:26;3.80;;;3.10;;
11481;SDS011;5797;51.662;6.748;2023-07-08T05:40:55;4.67;;;3.27;;
11481;SDS011;5797;51.662;6.748;2023-07-08T05:43:26;4.37;;;3.03;;
11481;SDS011;5797;51.662;6.748;2023-07-08T05:45:59;4.00;;;2.70;;
11481;SDS011;5797;51.662;6.748;2023-07-08T05:48:38;5.27;;;3.17;;
11481;SDS011;5797;51.662;6.748;2023-07-08T05:51:06;3.50;;;3.03;;
11481;SDS011;5797;51.662;6.748;2023-07-08T05:53:35;5.73;;;3.30;;
11481;SDS011;5797;51.662;6.748;2023-07-08T05:56:04;6.37;;;3.10;;
11481;SDS011;5797;51.662;6.748;2023-07-08T05:58:32;4.53;;;3.17;;
11481;SDS011;5797;51.662;6.748;2023-07-08T06:01:02;5.90;;;3.10;;
11481;SDS011;5797;51.662;6.748;2023-07-08T06:03:32;4.33;;;3.23;;
11481;SDS011;5797;51.662;6.748;2023-07-08T06:06:01;6.93;;;3.17;;
11481;SDS011;5797;51.662;6.748;2023-07-08T06:08:35;4.07;;;3.03;;
11481;SDS011;5797;51.662;6.748;2023-07-08T06:11:04;3.30;;;2.87;;
11481;SDS011;5797;51.662;6.748;2023-07-08T06:13:32;3.30;;;2.97;;
11481;SDS011;5797;51.662;6.748;2023-07-08T06:16:02;3.60;;;3.03;;
11481;SDS011;5797;51.662;6.748;2023-07-08T06:18:31;5.60;;;3.33;;
11481;SDS011;5797;51.662;6.748;2023-07-08T06:20:59;3.97;;;2.90;;
11481;SDS011;5797;51.662;6.748;2023-07-08T06:23:28;4.77;;;3.00;;
11481;SDS011;5797;51.662;6.748;2023-07-08T06:25:57;4.50;;;3.10;;
11481;SDS011;5797;51.662;6.748;2023-07-08T06:28:25;4.80;;;3.37;;
11481;SDS011;5797;51.662;6.748;2023-07-08T06:30:54;7.77;;;3.50;;
11481;SDS011;5797;51.662;6.748;2023-07-08T06:33:24;7.03;;;3.77;;
11481;SDS011;5797;51.662;6.748;2023-07-08T06:35:52;4.20;;;3.00;;
11481;SDS011;5797;51.662;6.748;2023-07-08T06:38:21;4.53;;;2.83;;
11481;SDS011;5797;51.662;6.748;2023-07-08T06:40:49;6.00;;;3.20;;
11481;SDS011;5797;51.662;6.748;2023-07-08T06:43:18;7.40;;;3.47;;
11481;SDS011;5797;51.662;6.748;2023-07-08T06:46:04;3.63;;;3.27;;
11481;SDS011;5797;51.662;6.748;2023-07-08T06:48:34;9.80;;;3.50;;
11481;SDS011;5797;51.662;6.748;2023-07-08T06:51:03;3.80;;;3.13;;
11481;SDS011;5797;51.662;6.748;2023-07-08T06:53:31;3.93;;;3.20;;
11481;SDS011;5797;51.662;6.748;2023-07-08T06:56:00;3.90;;;3.40;;
11481;SDS011;5797;51.662;6.748;2023-07-08T06:58:29;5.10;;;3.73;;
11481;SDS011;5797;51.662;6.748;2023-07-08T07:00:58;5.20;;;3.60;;
11481;SDS011;5797;51.662;6.748;2023-07-08T07:03:26;4.60;;;3.27;;
11481;SDS011;5797;51.662;6.748;2023-07-08T07:05:56;5.63;;;3.80;;
11481;SDS011;5797;51.662;6.748;2023-07-08T07:08:25;3.83;;;3.40;;
11481;SDS011;5797;51.662;6.748;2023-07-08T07:10:53;3.90;;;3.37;;
11481;SDS011;5797;51.662;6.748;2023-07-08T07:13:21;5.93;;;3.20;;
11481;SDS011;5797;51.662;6.748;2023-07-08T07:15:50;4.80;;;3.17;;
11481;SDS011;5797;51.662;6.748;2023-07-08T07:18:19;6.40;;;3.33;;
11481;SDS011;5797;51.662;6.748;2023-07-08T07:20:48;4.43;;;3.20;;
11481;SDS011;5797;51.662;6.748;2023-07-08T07:23:19;5.80;;;3.53;;
11481;SDS011;5797;51.662;6.748;2023-07-08T07:25:47;5.07;;;3.63;;
11481;SDS011;5797;51.662;6.748;2023-07-08T07:28:16;6.47;;;3.37;;
11481;SDS011;5797;51.662;6.748;2023-07-08T07:30:45;8.32;;;4.05;;
11481;SDS011;5797;51.662;6.748;2023-07-08T07:33:14;3.67;;;3.10;;
11481;SDS011;5797;51.662;6.748;2023-07-08T07:35:42;5.95;;;3.40;;
11481;SDS011;5797;51.662;6.748;2023-07-08T07:38:12;6.35;;;3.58;;
11481;SDS011;5797;51.662;6.748;2023-07-08T07:40:43;4.18;;;3.30;;
11481;SDS011;5797;51.662;6.748;2023-07-08T07:43:11;4.72;;;3.58;;
11481;SDS011;5797;51.662;6.748;2023-07-08T07:45:40;5.72;;;3.63;;
11481;SDS011;5797;51.662;6.748;2023-07-08T07:48:08;4.07;;;3.60;;
11481;SDS011;5797;51.662;6.748;2023-07-08T07:50:37;5.35;;;3.28;;
11481;SDS011;5797;51.662;6.748;2023-07-08T07:53:05;4.15;;;3.58;;
11481;SDS011;5797;51.662;6.748;2023-07-08T07:55:35;5.00;;;3.75;;
11481;SDS011;5797;51.662;6.748;2023-07-08T07:58:04;4.50;;;3.50;;
11481;SDS011;5797;51.662;6.748;2023-07-08T08:00:34;6.45;;;3.60;;
11481;SDS011;5797;51.662;6.748;2023-07-08T08:03:03;5.40;;;3.80;;
11481;SDS011;5797;51.662;6.748;2023-07-08T08:05:31;9.93;;;3.55;;
11481;SDS011;5797;51.662;6.748;2023-07-08T08:08:00;4.28;;;3.38;;
11481;SDS011;5797;51.662;6.748;2023-07-08T08:10:30;4.63;;;3.80;;
11481;SDS011;5797;51.662;6.748;2023-07-08T08:13:00;6.40;;;4.00;;
11481;SDS011;5797;51.662;6.748;2023-07-08T08:15:29;5.30;;;3.88;;
11481;SDS011;5797;51.662;6.748;2023-07-08T08:17:58;9.13;;;4.30;;
11481;SDS011;5797;51.662;6.748;2023-07-08T08:20:27;5.35;;;3.67;;
11481;SDS011;5797;51.662;6.748;2023-07-08T08:22:55;9.93;;;4.15;;
11481;SDS011;5797;51.662;6.748;2023-07-08T08:25:24;7.00;;;4.88;;
11481;SDS011;5797;51.662;6.748;2023-07-08T08:27:52;8.60;;;4.43;;
11481;SDS011;5797;51.662;6.748;2023-07-08T08:30:20;7.18;;;3.92;;
11481;SDS011;5797;51.662;6.748;2023-07-08T08:32:50;6.22;;;4.65;;
11481;SDS011;5797;51.662;6.748;2023-07-08T08:35:19;4.72;;;4.15;;
11481;SDS011;5797;51.662;6.748;2023-07-08T08:37:47;6.15;;;4.20;;
11481;SDS011;5797;51.662;6.748;2023-07-08T08:40:17;5.13;;;3.92;;
11481;SDS011;5797;51.662;6.748;2023-07-08T08:42:50;6.25;;;4.05;;
11481;SDS011;5797;51.662;6.748;2023-07-08T08:45:21;5.07;;;4.00;;
11481;SDS011;5797;51.662;6.748;2023-07-08T08:47:54;12.10;;;4.43;;
11481;SDS011;5797;51.662;6.748;2023-07-08T08:50:27;5.55;;;4.22;;
11481;SDS011;5797;51.662;6.748;2023-07-08T08:52:58;10.48;;;4.65;;
11481;SDS011;5797;51.662;6.748;2023-07-08T08:55:28;6.72;;;5.03;;
11481;SDS011;5797;51.662;6.748;2023-07-08T08:57:59;6.15;;;4.30;;
11481;SDS011;5797;51.662;6.748;2023-07-08T09:00:37;10.82;;;5.30;;
11481;SDS011;5797;51.662;6.748;2023-07-08T09:03:14;10.20;;;4.35;;
11481;SDS011;5797;51.662;6.748;2023-07-08T09:05:44;8.75;;;4.93;;
11481;SDS011;5797;51.662;6.748;2023-07-08T09:08:14;5.65;;;4.50;;
11481;SDS011;5797;51.662;6.748;2023-07-08T09:10:46;8.57;;;4.85;;
11481;SDS011;5797;51.662;6.748;2023-07-08T09:13:19;5.38;;;4.70;;
11481;SDS011;5797;51.662;6.748;2023-07-08T09:15:52;7.82;;;5.03;;
11481;SDS011;5797;51.662;6.748;2023-07-08T09:18:25;6.38;;;4.97;;
11481;SDS011;5797;51.662;6.748;2023-07-08T09:20:56;8.15;;;4.85;;
11481;SDS011;5797;51.662;6.748;2023-07-08T09:23:27;6.70;;;5.00;;
11481;SDS011;5797;51.662;6.748;2023-07-08T09:25:59;5.95;;;5.07;;
11481;SDS011;5797;51.662;6.748;2023-07-08T09:28:37;8.27;;;5.05;;
11481;SDS011;5797;51.662;6.748;2023-07-08T09:31:07;7.70;;;4.88;;
11481;SDS011;5797;51.662;6.748;2023-07-08T09:33:39;7.15;;;5.25;;
11481;SDS011;5797;51.662;6.748;2023-07-08T09:36:15;6.65;;;5.18;;
11481;SDS011;5797;51.662;6.748;2023-07-08T09:38:47;9.07;;;5.78;;
11481;SDS011;5797;51.662;6.748;2023-07-08T09:41:30;6.00;;;5.18;;
11481;SDS011;5797;51.662;6.748;2023-07-08T09:44:03;9.40;;;5.40;;
11481;SDS011;5797;51.662;6.748;2023-07-08T09:46:36;7.53;;;5.20;;
11481;SDS011;5797;51.662;6.748;2023-07-08T09:49:20;8.40;;;6.00;;
11481;SDS011;5797;51.662;6.748;2023-07-08T09:51:52;10.90;;;5.97;;
11481;SDS011;5797;51.662;6.748;2023-07-08T09:54:22;8.80;;;5.57;;
11481;SDS011;5797;51.662;6.748;2023-07-08T09:56:54;7.15;;;5.55;;
11481;SDS011;5797;51.662;6.748;2023-07-08T09:59:27;7.60;;;6.25;;
11481;SDS011;5797;51.662;6.748;2023-07-08T10:01:59;6.72;;;5.65;;
11481;SDS011;5797;51.662;6.748;2023-07-08T10:04:31;9.18;;;5.60;;
11481;SDS011;5797;51.662;6.748;2023-07-08T10:07:00;7.70;;;5.55;;
11481;SDS011;5797;51.662;6.748;2023-07-08T10:09:28;12.50;;;5.82;;
11481;SDS011;5797;51.662;6.748;2023-07-08T10:12:00;7.25;;;5.82;;
11481;SDS011;5797;51.662;6.748;2023-07-08T10:14:31;6.35;;;5.30;;
11481;SDS011;5797;51.662;6.748;2023-07-08T10:17:03;9.15;;;6.30;;
11481;SDS011;5797;51.662;6.748;2023-07-08T10:19:33;10.48;;;6.45;;
11481;SDS011;5797;51.662;6.748;2023-07-08T10:22:05;7.70;;;6.13;;
11481;SDS011;5797;51.662;6.748;2023-07-08T10:24:45;6.82;;;5.70;;
11481;SDS011;5797;51.662;6.748;2023-07-08T10:27:28;9.35;;;6.15;;
11481;SDS011;5797;51.662;6.748;2023-07-08T10:30:07;9.05;;;6.15;;
11481;SDS011;5797;51.662;6.748;2023-07-08T10:32:44;14.20;;;5.63;;
11481;SDS011;5797;51.662;6.748;2023-07-08T10:35:23;7.30;;;5.35;;
11481;SDS011;5797;51.662;6.748;2023-07-08T10:37:59;6.78;;;5.30;;
11481;SDS011;5797;51.662;6.748;2023-07-08T10:40:41;6.45;;;5.05;;
11481;SDS011;5797;51.662;6.748;2023-07-08T10:43:20;9.63;;;5.05;;
11481;SDS011;5797;51.662;6.748;2023-07-08T10:45:58;7.15;;;5.05;;
11481;SDS011;5797;51.662;6.748;2023-07-08T10:48:36;7.38;;;4.85;;
11481;SDS011;5797;51.662;6.748;2023-07-08T10:51:22;7.07;;;5.03;;
11481;SDS011;5797;51.662;6.748;2023-07-08T10:53:58;7.60;;;5.25;;
11481;SDS011;5797;51.662;6.748;2023-07-08T10:56:44;5.50;;;4.53;;
11481;SDS011;5797;51.662;6.748;2023-07-08T10:59:28;6.47;;;4.57;;
11481;SDS011;5797;51.662;6.748;2023-07-08T11:05:06;5.53;;;4.50;;
11481;SDS011;5797;51.662;6.748;2023-07-08T11:07:44;6.93;;;5.18;;
11481;SDS011;5797;51.662;6.748;2023-07-08T11:10:15;5.57;;;4.90;;
11481;SDS011;5797;51.662;6.748;2023-07-08T11:12:47;9.23;;;5.50;;
11481;SDS011;5797;51.662;6.748;2023-07-08T11:15:18;7.45;;;5.03;;
11481;SDS011;5797;51.662;6.748;2023-07-08T11:17:52;8.30;;;5.10;;
11481;SDS011;5797;51.662;6.748;2023-07-08T11:20:25;7.43;;;5.07;;
11481;SDS011;5797;51.662;6.748;2023-07-08T11:22:59;6.80;;;5.30;;
11481;SDS011;5797;51.662;6.748;2023-07-08T11:25:31;6.53;;;5.43;;
11481;SDS011;5797;51.662;6.748;2023-07-08T11:28:02;7.20;;;5.50;;
11481;SDS011;5797;51.662;6.748;2023-07-08T11:30:32;7.22;;;5.57;;
11481;SDS011;5797;51.662;6.748;2023-07-08T11:33:09;9.68;;;6.03;;
11481;SDS011;5797;51.662;6.748;2023-07-08T11:35:41;6.68;;;5.82;;
11481;SDS011;5797;51.662;6.748;2023-07-08T11:38:13;6.97;;;5.60;;
11481;SDS011;5797;51.662;6.748;2023-07-08T11:40:54;8.35;;;5.70;;
11481;SDS011;5797;51.662;6.748;2023-07-08T11:43:26;7.80;;;5.75;;
11481;SDS011;5797;51.662;6.748;2023-07-08T11:45:56;8.73;;;4.85;;
11481;SDS011;5797;51.662;6.748;2023-07-08T11:48:27;6.68;;;4.80;;
11481;SDS011;5797;51.662;6.748;2023-07-08T11:50:58;9.02;;;5.32;;
11481;SDS011;5797;51.662;6.748;2023-07-08T11:53:46;8.65;;;5.32;;
11481;SDS011;5797;51.662;6.748;2023-07-08T11:56:20;7.65;;;4.88;;
11481;SDS011;5797;51.662;6.748;2023-07-08T11:58:53;7.47;;;5.47;;
11481;SDS011;5797;51.662;6.748;2023-07-08T12:01:28;6.43;;;4.93;;
11481;SDS011;5797;51.662;6.748;2023-07-08T12:03:59;6.72;;;4.55;;
11481;SDS011;5797;51.662;6.748;2023-07-08T12:06:43;6.95;;;4.90;;
11481;SDS011;5797;51.662;6.748;2023-07-08T12:09:22;8.73;;;5.28;;
11481;SDS011;5797;51.662;6.748;2023-07-08T12:11:55;6.47;;;4.93;;
11481;SDS011;5797;51.662;6.748;2023-07-08T12:14:27;7.10;;;5.65;;
11481;SDS011;5797;51.662;6.748;2023-07-08T12:16:56;9.57;;;5.38;;
11481;SDS011;5797;51.662;6.748;2023-07-08T12:19:25;6.10;;;5.03;;
11481;SDS011;5797;51.662;6.748;2023-07-08T12:22:02;10.95;;;5.32;;
11481;SDS011;5797;51.662;6.748;2023-07-08T12:24:34;9.52;;;5.32;;
11481;SDS011;5797;51.662;6.748;2023-07-08T12:27:03;7.00;;;5.32;;
11481;SDS011;5797;51.662;6.748;2023-07-08T12:29:32;6.88;;;5.40;;
11481;SDS011;5797;51.662;6.748;2023-07-08T12:32:01;7.60;;;6.03;;
11481;SDS011;5797;51.662;6.748;2023-07-08T12:34:31;7.70;;;5.60;;
11481;SDS011;5797;51.662;6.748;2023-07-08T12:37:00;6.93;;;5.85;;
11481;SDS011;5797;51.662;6.748;2023-07-08T12:39:33;9.80;;;6.10;;
11481;SDS011;5797;51.662;6.748;2023-07-08T12:42:07;12.50;;;5.57;;
11481;SDS011;5797;51.662;6.748;2023-07-08T12:44:38;9.80;;;5.05;;
11481;SDS011;5797;51.662;6.748;2023-07-08T12:47:09;6.45;;;5.00;;
11481;SDS011;5797;51.662;6.748;2023-07-08T12:49:38;9.65;;;5.00;;
11481;SDS011;5797;51.662;6.748;2023-07-08T12:52:17;5.80;;;5.20;;
11481;SDS011;5797;51.662;6.748;2023-07-08T12:54:48;7.30;;;5.53;;
11481;SDS011;5797;51.662;6.748;2023-07-08T12:57:17;6.10;;;4.88;;
11481;SDS011;5797;51.662;6.748;2023-07-08T12:59:46;5.60;;;5.10;;
11481;SDS011;5797;51.662;6.748;2023-07-08T13:02:15;5.75;;;4.38;;
11481;SDS011;5797;51.662;6.748;2023-07-08T13:04:45;7.03;;;4.95;;
11481;SDS011;5797;51.662;6.748;2023-07-08T13:07:18;5.85;;;4.78;;
11481;SDS011;5797;51.662;6.748;2023-07-08T13:09:53;8.52;;;4.88;;
11481;SDS011;5797;51.662;6.748;2023-07-08T13:12:21;7.78;;;5.00;;
11481;SDS011;5797;51.662;6.748;2023-07-08T13:14:51;8.05;;;5.50;;
11481;SDS011;5797;51.662;6.748;2023-07-08T13:17:21;8.45;;;5.80;;
11481;SDS011;5797;51.662;6.748;2023-07-08T13:19:50;5.57;;;4.80;;
11481;SDS011;5797;51.662;6.748;2023-07-08T13:22:19;5.90;;;4.95;;
11481;SDS011;5797;51.662;6.748;2023-07-08T13:24:48;7.80;;;4.80;;
11481;SDS011;5797;51.662;6.748;2023-07-08T13:27:29;5.35;;;4.82;;
11481;SDS011;5797;51.662;6.748;2023-07-08T13:30:13;7.38;;;4.32;;
11481;SDS011;5797;51.662;6.748;2023-07-08T13:32:48;7.90;;;4.80;;
11481;SDS011;5797;51.662;6.748;2023-07-08T13:35:23;6.43;;;5.10;;
11481;SDS011;5797;51.662;6.748;2023-07-08T13:37:55;5.20;;;4.55;;
11481;SDS011;5797;51.662;6.748;2023-07-08T13:40:27;7.00;;;4.65;;
11481;SDS011;5797;51.662;6.748;2023-07-08T13:42:57;6.18;;;4.57;;
11481;SDS011;5797;51.662;6.748;2023-07-08T13:45:26;5.65;;;5.03;;
11481;SDS011;5797;51.662;6.748;2023-07-08T13:48:08;9.73;;;5.15;;
11481;SDS011;5797;51.662;6.748;2023-07-08T13:50:44;4.78;;;4.25;;
11481;SDS011;5797;51.662;6.748;2023-07-08T13:53:19;6.28;;;4.43;;
11481;SDS011;5797;51.662;6.748;2023-07-08T13:55:58;5.78;;;4.47;;
11481;SDS011;5797;51.662;6.748;2023-07-08T13:58:28;5.13;;;4.30;;
11481;SDS011;5797;51.662;6.748;2023-07-08T14:00:58;5.85;;;4.40;;
11481;SDS011;5797;51.662;6.748;2023-07-08T14:03:27;4.78;;;4.20;;
11481;SDS011;5797;51.662;6.748;2023-07-08T14:05:55;6.68;;;4.75;;
11481;SDS011;5797;51.662;6.748;2023-07-08T14:08:24;6.63;;;4.40;;
11481;SDS011;5797;51.662;6.748;2023-07-08T14:10:52;7.03;;;5.05;;
11481;SDS011;5797;51.662;6.748;2023-07-08T14:13:24;7.95;;;5.10;;
11481;SDS011;5797;51.662;6.748;2023-07-08T14:15:54;7.57;;;5.13;;
11481;SDS011;5797;51.662;6.748;2023-07-08T14:18:23;5.40;;;4.90;;
11481;SDS011;5797;51.662;6.748;2023-07-08T14:20:51;6.50;;;4.57;;
11481;SDS011;5797;51.662;6.748;2023-07-08T14:23:20;6.15;;;4.40;;
11481;SDS011;5797;51.662;6.748;2023-07-08T14:25:49;4.80;;;4.28;;
11481;SDS011;5797;51.662;6.748;2023-07-08T14:28:17;6.45;;;4.22;;
11481;SDS011;5797;51.662;6.748;2023-07-08T14:30:47;7.25;;;4.80;;
11481;SDS011;5797;51.662;6.748;2023-07-08T14:33:16;5.35;;;4.78;;
11481;SDS011;5797;51.662;6.748;2023-07-08T14:35:44;7.85;;;4.78;;
11481;SDS011;5797;51.662;6.748;2023-07-08T14:38:12;6.22;;;4.93;;
11481;SDS011;5797;51.662;6.748;2023-07-08T14:40:42;6.47;;;4.75;;
11481;SDS011;5797;51.662;6.748;2023-07-08T14:43:13;7.07;;;4.45;;
11481;SDS011;5797;51.662;6.748;2023-07-08T14:45:43;7.22;;;4.85;;
11481;SDS011;5797;51.662;6.748;2023-07-08T14:48:15;5.05;;;4.55;;
11481;SDS011;5797;51.662;6.748;2023-07-08T14:50:44;7.15;;;4.95;;
11481;SDS011;5797;51.662;6.748;2023-07-08T14:53:13;5.38;;;4.45;;
11481;SDS011;5797;51.662;6.748;2023-07-08T14:55:42;6.75;;;4.18;;
11481;SDS011;5797;51.662;6.748;2023-07-08T14:58:14;6.63;;;4.57;;
11481;SDS011;5797;51.662;6.748;2023-07-08T15:00:46;6.75;;;4.63;;
11481;SDS011;5797;51.662;6.748;2023-07-08T15:03:16;5.80;;;4.80;;
11481;SDS011;5797;51.662;6.748;2023-07-08T15:05:44;6.95;;;4.40;;
11481;SDS011;5797;51.662;6.748;2023-07-08T15:08:13;6.97;;;4.85;;
11481;SDS011;5797;51.662;6.748;2023-07-08T15:10:42;5.90;;;4.70;;
11481;SDS011;5797;51.662;6.748;2023-07-08T15:13:14;5.53;;;4.35;;
11481;SDS011;5797;51.662;6.748;2023-07-08T15:15:43;7.47;;;4.80;;
11481;SDS011;5797;51.662;6.748;2023-07-08T15:18:12;6.47;;;4.45;;
11481;SDS011;5797;51.662;6.748;2023-07-08T15:20:43;5.97;;;4.40;;
11481;SDS011;5797;51.662;6.748;2023-07-08T15:23:12;7.82;;;4.60;;
11481;SDS011;5797;51.662;6.748;2023-07-08T15:25:41;7.00;;;4.75;;
11481;SDS011;5797;51.662;6.748;2023-07-08T15:28:14;6.15;;;4.70;;